Time;durP1;ratioP1;P1;durP2;ratioP2;P2;SDS_P1;SDS_P2;PMS_P1;PMS_P2;Temp;Humidity;BMP_temperature;BMP_pressure;BME280_temperature;BME280_humidity;BME280_pressure;Samples;Min_cycle;Max_cycle;Signal;HPM_P1;HPM_P2
2021/10/02 00:47:36;;;;;;;4.70;2.77;;;;;;;;;;4994275;28;20182;-89
2021/10/02 00:50:40;;;;;;;3.60;3.13;;;;;;;;;;4995202;28;20182;-86
2021/10/02 00:53:44;;;;;;;4.37;3.30;;;;;;;;;;4997151;28;20193;-87
2021/10/02 00:56:48;;;;;;;3.67;3.37;;;;;;;;;;4983504;28;20197;-88
2021/10/02 00:59:53;;;;;;;3.97;3.17;;;;;;;;;;4996702;28;20205;-86
2021/10/02 01:03:07;;;;;;;3.60;3.13;;;;;;;;;;4980931;28;20221;-89
2021/10/02 01:06:46;;;;;;;4.97;3.03;;;;;;;;;;4981906;28;20193;-87
2021/10/02 01:10:10;;;;;;;3.60;3.10;;;;;;;;;;4987260;28;20201;-86
2021/10/02 01:13:32;;;;;;;3.70;3.07;;;;;;;;;;4985861;28;20225;-86
2021/10/02 01:16:40;;;;;;;4.60;2.83;;;;;;;;;;4994988;28;20185;-86
2021/10/02 01:20:04;;;;;;;3.47;2.93;;;;;;;;;;4992325;28;20197;-87
2021/10/02 01:23:24;;;;;;;5.70;3.13;;;;;;;;;;4980888;28;20233;-87
2021/10/02 01:27:00;;;;;;;5.00;3.10;;;;;;;;;;4981233;28;20629;-87
2021/10/02 01:30:10;;;;;;;3.97;3.50;;;;;;;;;;5015923;28;20625;-87
2021/10/02 01:34:16;;;;;;;5.87;4.00;;;;;;;;;;4980976;28;20704;-89
2021/10/02 01:37:35;;;;;;;3.07;2.60;;;;;;;;;;4995165;28;20185;-89
2021/10/02 01:47:27;;;;;;;5.60;3.20;;;;;;;;;;4991626;28;20190;-87
2021/10/02 01:50:38;;;;;;;4.80;3.60;;;;;;;;;;4980636;28;20174;-89
2021/10/02 01:53:46;;;;;;;5.93;3.47;;;;;;;;;;4986255;28;20189;-86
2021/10/02 01:56:52;;;;;;;4.60;3.37;;;;;;;;;;4980654;28;20197;-87
2021/10/02 01:59:57;;;;;;;4.93;3.30;;;;;;;;;;4991807;28;20185;-88
2021/10/02 02:03:04;;;;;;;3.90;3.40;;;;;;;;;;4980091;28;20704;-89
2021/10/02 02:06:09;;;;;;;4.60;3.33;;;;;;;;;;5002680;28;20186;-90
2021/10/02 02:09:16;;;;;;;4.40;3.47;;;;;;;;;;4991832;28;20181;-87
2021/10/02 02:12:22;;;;;;;3.77;3.17;;;;;;;;;;4982732;28;20232;-88
2021/10/02 02:15:30;;;;;;;4.90;3.13;;;;;;;;;;4984714;28;20197;-86
2021/10/02 02:18:35;;;;;;;4.23;3.13;;;;;;;;;;4987726;28;20181;-86
2021/10/02 02:21:39;;;;;;;7.30;3.40;;;;;;;;;;4987430;28;20233;-86
2021/10/02 02:24:43;;;;;;;4.37;3.27;;;;;;;;;;4987727;28;20637;-86
2021/10/02 02:27:47;;;;;;;6.30;3.80;;;;;;;;;;4997715;28;20218;-86
2021/10/02 02:30:52;;;;;;;4.33;3.50;;;;;;;;;;4985845;28;20197;-87
2021/10/02 02:33:56;;;;;;;4.23;3.20;;;;;;;;;;4980496;28;20178;-87
2021/10/02 02:37:01;;;;;;;5.63;3.47;;;;;;;;;;4991443;28;20185;-87
2021/10/02 02:40:06;;;;;;;4.50;3.67;;;;;;;;;;4991383;28;20177;-87
2021/10/02 02:43:10;;;;;;;5.33;3.80;;;;;;;;;;4979851;28;20209;-87
2021/10/02 02:46:22;;;;;;;4.57;3.83;;;;;;;;;;4990937;28;20205;-87
2021/10/02 02:49:52;;;;;;;5.57;3.80;;;;;;;;;;4991232;28;20189;-87
2021/10/02 02:53:01;;;;;;;8.33;3.70;;;;;;;;;;4979910;28;20221;-87
2021/10/02 02:56:25;;;;;;;4.97;3.70;;;;;;;;;;4992234;28;20178;-87
2021/10/02 02:59:45;;;;;;;6.00;4.27;;;;;;;;;;4995282;28;20185;-88
2021/10/02 03:02:54;;;;;;;7.70;4.00;;;;;;;;;;5026081;23;20237;-88
2021/10/02 03:06:02;;;;;;;4.97;3.77;;;;;;;;;;5005954;28;20178;-88
2021/10/02 03:09:08;;;;;;;5.57;3.67;;;;;;;;;;5005866;28;20185;-88
2021/10/02 03:12:13;;;;;;;4.70;3.80;;;;;;;;;;5005860;28;20217;-88
2021/10/02 03:15:18;;;;;;;5.57;3.50;;;;;;;;;;5005509;28;20197;-88
2021/10/02 03:18:25;;;;;;;5.03;3.67;;;;;;;;;;5005728;28;20211;-88
2021/10/02 03:21:30;;;;;;;7.33;4.63;;;;;;;;;;5005813;28;20209;-88
2021/10/02 03:24:37;;;;;;;5.33;3.37;;;;;;;;;;5005833;28;20656;-88
2021/10/02 03:27:42;;;;;;;4.77;4.03;;;;;;;;;;5005375;28;20182;-88
2021/10/02 03:30:46;;;;;;;5.73;3.63;;;;;;;;;;5005429;28;20182;-88
2021/10/02 03:33:50;;;;;;;5.17;3.80;;;;;;;;;;5005486;28;20186;-88
2021/10/02 03:36:54;;;;;;;10.37;3.53;;;;;;;;;;5004984;28;20209;-88
2021/10/02 03:39:58;;;;;;;3.77;3.37;;;;;;;;;;5004791;28;20205;-88
2021/10/02 03:43:02;;;;;;;3.90;3.40;;;;;;;;;;5016287;28;20225;-88
2021/10/02 03:46:06;;;;;;;4.57;3.50;;;;;;;;;;5005184;28;20189;-88
2021/10/02 03:49:11;;;;;;;5.80;3.33;;;;;;;;;;5005125;28;20502;-88
2021/10/02 03:52:15;;;;;;;7.47;3.37;;;;;;;;;;5004937;28;20205;-88
2021/10/02 03:55:19;;;;;;;4.33;3.53;;;;;;;;;;5005126;28;20181;-88
2021/10/02 03:58:24;;;;;;;5.70;3.50;;;;;;;;;;5004992;28;20184;-88
2021/10/02 04:01:28;;;;;;;3.83;3.37;;;;;;;;;;5004178;28;20239;-88
2021/10/02 04:04:33;;;;;;;5.13;3.80;;;;;;;;;;5015867;28;20205;-88
2021/10/02 04:07:37;;;;;;;4.53;3.60;;;;;;;;;;5014959;28;20189;-88
2021/10/02 04:10:41;;;;;;;4.37;3.63;;;;;;;;;;5026463;28;20189;-88
2021/10/02 04:13:44;;;;;;;8.97;4.13;;;;;;;;;;5001466;28;20217;-88
2021/10/02 04:16:48;;;;;;;6.13;3.60;;;;;;;;;;5001555;28;20205;-88
2021/10/02 04:19:52;;;;;;;6.27;3.90;;;;;;;;;;5015158;28;20201;-88
2021/10/02 04:22:57;;;;;;;5.93;3.90;;;;;;;;;;4995559;28;20233;-88
2021/10/02 04:26:00;;;;;;;5.77;4.13;;;;;;;;;;4990666;28;20202;-88
2021/10/02 04:29:05;;;;;;;6.80;4.60;;;;;;;;;;5022731;28;20181;-88
2021/10/02 04:32:09;;;;;;;6.67;4.27;;;;;;;;;;5017385;28;20221;-88
2021/10/02 04:35:13;;;;;;;5.80;4.07;;;;;;;;;;5013201;28;20193;-88
2021/10/02 04:38:17;;;;;;;7.37;4.13;;;;;;;;;;5025326;28;20181;-89
2021/10/02 04:41:22;;;;;;;4.37;3.60;;;;;;;;;;5020247;28;20218;-89
2021/10/02 04:44:26;;;;;;;4.57;3.83;;;;;;;;;;5002740;28;20190;-88
2021/10/02 04:47:31;;;;;;;6.50;4.27;;;;;;;;;;5007721;28;20183;-89
2021/10/02 04:50:35;;;;;;;4.60;4.00;;;;;;;;;;5011375;28;20189;-89
2021/10/02 04:53:39;;;;;;;6.43;4.00;;;;;;;;;;4997064;28;20222;-88
2021/10/02 04:56:45;;;;;;;6.77;4.13;;;;;;;;;;4984089;28;20252;-88
2021/10/02 04:59:49;;;;;;;6.40;3.70;;;;;;;;;;5007154;28;20660;-88
2021/10/02 05:02:53;;;;;;;5.53;4.13;;;;;;;;;;4997030;28;20222;-87
2021/10/02 05:05:57;;;;;;;6.50;4.80;;;;;;;;;;4995484;28;20182;-88
2021/10/02 05:09:01;;;;;;;6.07;4.77;;;;;;;;;;5003849;28;20194;-88
2021/10/02 05:12:05;;;;;;;7.17;4.67;;;;;;;;;;4990114;28;20214;-88
2021/10/02 05:15:10;;;;;;;6.63;4.20;;;;;;;;;;4981873;28;20206;-88
2021/10/02 05:18:14;;;;;;;5.43;4.43;;;;;;;;;;4985738;28;20182;-88
2021/10/02 05:21:18;;;;;;;7.70;4.27;;;;;;;;;;5015190;28;20197;-88
2021/10/02 05:24:22;;;;;;;8.70;4.40;;;;;;;;;;5002839;28;20194;-88
2021/10/02 05:27:26;;;;;;;5.83;4.20;;;;;;;;;;5026027;28;20197;-88
2021/10/02 05:30:30;;;;;;;5.37;4.50;;;;;;;;;;4995161;28;20182;-88
2021/10/02 05:33:34;;;;;;;6.90;3.67;;;;;;;;;;5002960;28;20553;-88
2021/10/02 05:36:38;;;;;;;7.13;4.20;;;;;;;;;;5013955;28;20652;-88
2021/10/02 05:39:42;;;;;;;7.77;4.13;;;;;;;;;;4986010;28;20194;-87
2021/10/02 05:42:47;;;;;;;6.77;4.13;;;;;;;;;;5012823;28;20224;-88
2021/10/02 05:45:51;;;;;;;6.50;4.40;;;;;;;;;;5014755;28;20186;-88
2021/10/02 05:48:56;;;;;;;6.33;4.57;;;;;;;;;;4997220;28;20189;-88
2021/10/02 05:52:00;;;;;;;9.33;5.00;;;;;;;;;;4978757;28;20545;-88
2021/10/02 05:55:04;;;;;;;5.67;4.63;;;;;;;;;;5023599;28;20197;-88
2021/10/02 05:58:08;;;;;;;7.20;5.27;;;;;;;;;;5014026;28;20197;-88
2021/10/02 06:01:12;;;;;;;5.20;4.23;;;;;;;;;;5013906;28;20182;-88
2021/10/02 06:04:16;;;;;;;5.53;4.53;;;;;;;;;;5005519;28;20194;-88
2021/10/02 06:07:20;;;;;;;6.93;4.07;;;;;;;;;;4983374;28;20533;-88
2021/10/02 06:10:25;;;;;;;7.40;4.43;;;;;;;;;;4994179;28;20186;-88
2021/10/02 06:13:32;;;;;;;6.73;4.63;;;;;;;;;;5013455;28;20221;-88
2021/10/02 06:16:38;;;;;;;5.27;4.77;;;;;;;;;;5014362;28;20530;-88
2021/10/02 06:19:42;;;;;;;6.40;4.97;;;;;;;;;;5013314;28;20201;-88
2021/10/02 06:22:47;;;;;;;6.63;5.17;;;;;;;;;;4991166;28;20221;-88
2021/10/02 06:25:51;;;;;;;5.43;4.70;;;;;;;;;;4984039;28;20186;-87
2021/10/02 06:28:55;;;;;;;5.83;4.33;;;;;;;;;;5001239;28;20193;-88
2021/10/02 06:31:58;;;;;;;9.73;4.67;;;;;;;;;;5013208;28;20217;-88
2021/10/02 06:35:04;;;;;;;6.40;5.47;;;;;;;;;;5013643;28;20201;-88
2021/10/02 06:38:08;;;;;;;8.60;4.97;;;;;;;;;;5013126;28;20190;-88
2021/10/02 06:41:12;;;;;;;8.90;5.00;;;;;;;;;;5013195;28;20173;-88
2021/10/02 06:44:16;;;;;;;5.93;4.90;;;;;;;;;;5024525;28;20193;-88
2021/10/02 06:47:23;;;;;;;7.33;4.50;;;;;;;;;;5002084;28;20181;-88
2021/10/02 06:50:27;;;;;;;7.20;4.90;;;;;;;;;;5012922;28;20533;-88
2021/10/02 06:53:31;;;;;;;7.40;4.93;;;;;;;;;;5024354;28;20221;-88
2021/10/02 06:56:36;;;;;;;6.77;4.60;;;;;;;;;;5011950;28;20189;-88
2021/10/02 06:59:40;;;;;;;6.30;4.20;;;;;;;;;;4989722;28;20534;-88
2021/10/02 07:02:45;;;;;;;6.00;4.60;;;;;;;;;;4983759;28;20573;-88
2021/10/02 07:05:49;;;;;;;8.37;4.53;;;;;;;;;;4994649;28;20538;-88
2021/10/02 07:08:53;;;;;;;9.00;5.00;;;;;;;;;;4988241;28;20557;-88
2021/10/02 07:11:57;;;;;;;7.90;4.63;;;;;;;;;;5009353;28;20213;-88
2021/10/02 07:15:06;;;;;;;9.17;4.17;;;;;;;;;;4990348;28;20201;-88
2021/10/02 07:18:10;;;;;;;6.00;4.70;;;;;;;;;;5016099;28;20186;-88
2021/10/02 07:21:13;;;;;;;6.20;4.57;;;;;;;;;;5008839;28;20185;-86
2021/10/02 07:24:18;;;;;;;6.37;4.30;;;;;;;;;;4995127;28;20538;-85
2021/10/02 07:27:23;;;;;;;5.27;3.77;;;;;;;;;;4991668;28;20182;-85
2021/10/02 07:30:28;;;;;;;5.63;4.00;;;;;;;;;;5012757;28;20694;-86
2021/10/02 07:33:32;;;;;;;5.53;4.30;;;;;;;;;;4988835;28;20566;-87
2021/10/02 07:36:36;;;;;;;7.87;4.70;;;;;;;;;;4991808;28;20185;-87
2021/10/02 07:39:40;;;;;;;5.77;5.17;;;;;;;;;;5004831;28;20210;-86
2021/10/02 07:42:51;;;;;;;7.83;4.70;;;;;;;;;;5002951;28;20218;-87
2021/10/02 07:45:55;;;;;;;7.80;4.80;;;;;;;;;;5007414;28;20202;-87
2021/10/02 07:49:00;;;;;;;4.83;4.03;;;;;;;;;;5001494;28;20205;-87
2021/10/02 07:52:05;;;;;;;5.90;4.40;;;;;;;;;;5020764;28;20895;-87
2021/10/02 07:55:13;;;;;;;5.30;4.17;;;;;;;;;;5010436;28;20189;-87
2021/10/02 07:58:21;;;;;;;4.90;4.03;;;;;;;;;;5004255;28;20206;-87
2021/10/02 08:01:28;;;;;;;9.97;4.20;;;;;;;;;;4979559;28;20198;-87
2021/10/02 08:04:33;;;;;;;6.07;4.63;;;;;;;;;;5006851;28;20186;-87
2021/10/02 08:07:44;;;;;;;5.60;4.40;;;;;;;;;;5005454;28;20213;-87
2021/10/02 08:10:49;;;;;;;6.53;4.20;;;;;;;;;;5018674;28;20205;-88
2021/10/02 08:13:54;;;;;;;4.77;3.60;;;;;;;;;;5000069;28;20194;-88
2021/10/02 08:16:59;;;;;;;4.37;3.83;;;;;;;;;;4984728;28;20205;-88
2021/10/02 08:20:08;;;;;;;3.90;3.33;;;;;;;;;;5012031;28;20178;-88
2021/10/02 08:23:17;;;;;;;5.77;3.87;;;;;;;;;;5000072;28;20705;-88
2021/10/02 08:26:21;;;;;;;5.73;3.83;;;;;;;;;;5000454;28;20194;-87
2021/10/02 08:29:26;;;;;;;5.27;3.80;;;;;;;;;;4994574;28;20186;-88
2021/10/02 08:32:30;;;;;;;8.20;4.13;;;;;;;;;;5019913;28;20221;-88
2021/10/02 08:35:34;;;;;;;4.00;3.60;;;;;;;;;;4996728;28;20193;-87
2021/10/02 08:38:39;;;;;;;6.17;3.93;;;;;;;;;;4990113;28;20644;-88
2021/10/02 08:41:44;;;;;;;7.03;4.57;;;;;;;;;;5000727;28;20222;-88
2021/10/02 08:44:51;;;;;;;10.43;4.47;;;;;;;;;;5003172;28;20202;-88
2021/10/02 08:47:57;;;;;;;7.43;4.23;;;;;;;;;;5019092;28;20190;-88
2021/10/02 08:51:03;;;;;;;5.60;3.83;;;;;;;;;;5020409;28;20185;-88
2021/10/02 08:54:09;;;;;;;7.00;4.30;;;;;;;;;;5010653;28;20194;-88
2021/10/02 08:57:17;;;;;;;6.67;4.20;;;;;;;;;;4977802;28;20637;-88
2021/10/02 09:00:23;;;;;;;5.50;4.00;;;;;;;;;;5019015;28;20201;-88
2021/10/02 09:03:28;;;;;;;9.87;4.40;;;;;;;;;;5025115;23;20233;-72
2021/10/02 09:06:34;;;;;;;5.80;4.10;;;;;;;;;;5035389;28;20181;-72
2021/10/02 09:09:38;;;;;;;6.40;4.73;;;;;;;;;;5002630;28;20189;-72
2021/10/02 09:12:44;;;;;;;6.30;4.93;;;;;;;;;;4994220;28;20174;-72
2021/10/02 09:15:48;;;;;;;6.27;4.50;;;;;;;;;;4994861;28;20194;-72
2021/10/02 09:18:52;;;;;;;5.67;4.50;;;;;;;;;;4994453;28;20194;-72
2021/10/02 09:22:08;;;;;;;4.40;4.00;;;;;;;;;;4992320;28;20225;-72
2021/10/02 09:25:12;;;;;;;5.97;4.10;;;;;;;;;;4983572;28;20171;-72
2021/10/02 09:28:17;;;;;;;6.67;4.20;;;;;;;;;;4995255;28;20190;-71
2021/10/02 09:31:21;;;;;;;4.63;3.97;;;;;;;;;;4992064;28;20222;-71
2021/10/02 09:34:25;;;;;;;7.93;4.57;;;;;;;;;;4984040;28;20205;-72
2021/10/02 09:37:37;;;;;;;5.97;4.30;;;;;;;;;;4979628;28;20194;-72
2021/10/02 09:40:54;;;;;;;8.60;4.87;;;;;;;;;;4986979;28;20218;-72
2021/10/02 09:43:58;;;;;;;5.87;4.63;;;;;;;;;;4975360;28;20207;-72
2021/10/02 09:47:02;;;;;;;5.83;4.63;;;;;;;;;;4979798;28;20190;-72
2021/10/02 09:50:34;;;;;;;6.07;4.67;;;;;;;;;;4993206;28;20534;-72
2021/10/02 09:53:41;;;;;;;8.63;5.07;;;;;;;;;;4992996;28;20190;-72
2021/10/02 09:57:08;;;;;;;6.40;4.97;;;;;;;;;;4994793;28;20186;-71
2021/10/02 10:00:16;;;;;;;6.03;4.60;;;;;;;;;;4963453;28;20187;-72
2021/10/02 10:03:20;;;;;;;7.43;4.50;;;;;;;;;;4978683;28;20210;-71
2021/10/02 10:06:26;;;;;;;8.17;4.47;;;;;;;;;;4989781;28;20209;-72
2021/10/02 10:09:30;;;;;;;6.17;4.67;;;;;;;;;;4988292;28;20203;-72
2021/10/02 10:12:35;;;;;;;5.33;4.67;;;;;;;;;;4994479;28;20225;-72
2021/10/02 10:15:43;;;;;;;5.80;4.37;;;;;;;;;;4992764;28;20190;-72
2021/10/02 10:18:48;;;;;;;6.80;4.47;;;;;;;;;;4975244;28;20187;-72
2021/10/02 10:22:05;;;;;;;6.13;4.00;;;;;;;;;;4976340;28;20227;-72
2021/10/02 10:25:11;;;;;;;7.40;4.80;;;;;;;;;;4994524;28;20194;-72
2021/10/02 10:28:18;;;;;;;8.37;4.77;;;;;;;;;;4981606;28;20650;-72
2021/10/02 10:31:26;;;;;;;5.70;5.00;;;;;;;;;;4974980;28;20685;-72
2021/10/02 10:34:30;;;;;;;6.63;5.03;;;;;;;;;;4975001;28;20207;-72
2021/10/02 10:37:35;;;;;;;9.93;4.60;;;;;;;;;;4974690;28;20530;-72
2021/10/02 10:40:39;;;;;;;6.20;4.63;;;;;;;;;;4977428;28;20227;-72
2021/10/02 10:43:44;;;;;;;7.20;4.93;;;;;;;;;;4981829;28;20226;-72
2021/10/02 10:46:48;;;;;;;5.27;4.67;;;;;;;;;;4974842;28;20210;-72
2021/10/02 10:49:53;;;;;;;6.23;5.10;;;;;;;;;;4983153;28;20534;-72
2021/10/02 10:53:01;;;;;;;8.00;5.27;;;;;;;;;;4993733;28;20636;-72
2021/10/02 10:56:07;;;;;;;9.50;5.07;;;;;;;;;;4993164;28;20183;-72
2021/10/02 10:59:18;;;;;;;10.13;4.40;;;;;;;;;;4987552;28;20184;-72
2021/10/02 11:02:43;;;;;;;5.77;4.27;;;;;;;;;;4966173;28;20223;-72
2021/10/02 11:05:47;;;;;;;7.03;4.63;;;;;;;;;;4992090;28;20189;-72
2021/10/02 11:09:00;;;;;;;6.27;5.30;;;;;;;;;;4976261;28;20234;-72
2021/10/02 11:12:07;;;;;;;7.27;4.60;;;;;;;;;;4987949;28;20228;-72
2021/10/02 11:15:23;;;;;;;7.80;5.13;;;;;;;;;;4992595;28;20194;-72
2021/10/02 11:18:45;;;;;;;7.97;5.17;;;;;;;;;;4987391;28;20204;-72
2021/10/02 11:22:20;;;;;;;6.57;4.80;;;;;;;;;;4980925;28;20222;-72
2021/10/02 11:25:25;;;;;;;8.33;4.93;;;;;;;;;;4978281;28;20186;-72
2021/10/02 11:28:31;;;;;;;7.47;4.90;;;;;;;;;;4995258;28;20190;-72
2021/10/02 11:31:35;;;;;;;10.60;4.30;;;;;;;;;;4978157;28;20693;-72
2021/10/02 11:35:09;;;;;;;5.27;4.27;;;;;;;;;;4993383;28;20186;-72
2021/10/02 11:38:32;;;;;;;6.93;4.93;;;;;;;;;;4981110;28;20203;-72
2021/10/02 11:41:37;;;;;;;11.13;5.93;;;;;;;;;;4990880;28;20594;-72
2021/10/02 11:44:49;;;;;;;6.40;5.07;;;;;;;;;;4996373;28;20213;-72
2021/10/02 11:48:10;;;;;;;7.70;4.90;;;;;;;;;;4977903;28;20191;-72
2021/10/02 11:51:13;;;;;;;8.40;5.17;;;;;;;;;;4996753;28;20222;-72
2021/10/02 11:54:19;;;;;;;9.10;4.40;;;;;;;;;;4983043;28;20204;-72
2021/10/02 11:57:23;;;;;;;8.17;4.63;;;;;;;;;;4983478;28;20201;-72
2021/10/02 12:00:28;;;;;;;5.90;4.80;;;;;;;;;;4977621;28;20187;-72
2021/10/02 12:03:34;;;;;;;5.70;4.30;;;;;;;;;;4988134;28;20680;-72
2021/10/02 12:06:44;;;;;;;5.53;4.47;;;;;;;;;;4987860;28;20207;-72
2021/10/02 12:09:56;;;;;;;6.30;4.47;;;;;;;;;;4996147;28;20196;-72
2021/10/02 12:13:21;;;;;;;6.83;4.63;;;;;;;;;;4995794;28;22050;-72
2021/10/02 12:16:29;;;;;;;5.13;4.20;;;;;;;;;;4990810;28;20517;-72
2021/10/02 12:19:34;;;;;;;4.90;4.40;;;;;;;;;;4985910;28;20187;-72
2021/10/02 12:22:39;;;;;;;7.03;5.17;;;;;;;;;;4966237;28;20248;-72
2021/10/02 12:25:43;;;;;;;7.67;5.30;;;;;;;;;;4994388;28;20189;-72
2021/10/02 12:28:47;;;;;;;7.27;5.27;;;;;;;;;;4977860;28;20195;-72
2021/10/02 12:32:10;;;;;;;8.50;5.05;;;;;;;;;;4986712;28;20693;-72
2021/10/02 12:35:16;;;;;;;7.87;4.80;;;;;;;;;;4990184;28;20197;-72
2021/10/02 12:38:21;;;;;;;5.40;4.53;;;;;;;;;;4980340;28;20191;-73
2021/10/02 12:41:36;;;;;;;7.50;4.60;;;;;;;;;;4985765;28;20695;-72
2021/10/02 12:44:45;;;;;;;5.55;4.80;;;;;;;;;;4991355;28;20210;-72
2021/10/02 12:47:53;;;;;;;7.43;5.38;;;;;;;;;;4985153;28;20198;-73
2021/10/02 12:50:57;;;;;;;7.22;5.60;;;;;;;;;;4981500;28;20224;-72
2021/10/02 12:54:00;;;;;;;7.03;5.05;;;;;;;;;;4965815;28;20189;-72
2021/10/02 12:57:10;;;;;;;9.90;5.40;;;;;;;;;;4971193;28;21101;-72
2021/10/02 13:00:35;;;;;;;6.57;4.45;;;;;;;;;;4976912;28;20194;-74
2021/10/02 13:03:40;;;;;;;6.55;5.53;;;;;;;;;;4983971;28;20213;-74
2021/10/02 13:06:53;;;;;;;7.38;5.30;;;;;;;;;;4976949;28;20192;-73
2021/10/02 13:10:01;;;;;;;5.38;4.38;;;;;;;;;;4967970;28;20209;-74
2021/10/02 13:13:12;;;;;;;6.25;4.85;;;;;;;;;;4965199;28;20188;-73
2021/10/02 13:16:20;;;;;;;9.13;5.55;;;;;;;;;;4975988;28;20182;-74
2021/10/02 13:19:30;;;;;;;6.80;5.05;;;;;;;;;;4964086;28;20186;-73
2021/10/02 13:22:46;;;;;;;5.30;4.40;;;;;;;;;;4976104;28;20225;-73
2021/10/02 13:25:56;;;;;;;6.28;4.88;;;;;;;;;;4976104;28;20661;-74
2021/10/02 13:29:00;;;;;;;27.75;4.70;;;;;;;;;;4976025;28;20663;-73
2021/10/02 13:32:15;;;;;;;5.57;3.92;;;;;;;;;;4974964;28;20685;-73
2021/10/02 13:35:22;;;;;;;8.65;3.58;;;;;;;;;;4975986;28;20183;-73
2021/10/02 13:38:34;;;;;;;4.95;3.65;;;;;;;;;;4975705;28;20189;-73
2021/10/02 13:41:46;;;;;;;6.80;3.92;;;;;;;;;;4974478;28;20210;-73
2021/10/02 13:44:55;;;;;;;6.88;4.72;;;;;;;;;;4975568;28;20212;-74
2021/10/02 13:48:06;;;;;;;6.65;4.13;;;;;;;;;;4963845;28;20200;-73
2021/10/02 13:51:10;;;;;;;4.47;3.90;;;;;;;;;;4975341;28;20227;-74
2021/10/02 13:54:14;;;;;;;5.47;3.83;;;;;;;;;;4975920;28;20176;-73
2021/10/02 13:57:18;;;;;;;5.57;3.60;;;;;;;;;;4963702;28;20178;-74
2021/10/02 14:00:23;;;;;;;4.37;3.70;;;;;;;;;;4952274;28;20208;-73
2021/10/02 14:03:28;;;;;;;8.05;4.10;;;;;;;;;;4974408;28;20674;-74
2021/10/02 14:06:33;;;;;;;6.57;3.90;;;;;;;;;;4963260;28;20180;-73
2021/10/02 14:09:37;;;;;;;5.23;3.97;;;;;;;;;;4974854;28;20522;-73
2021/10/02 14:12:41;;;;;;;5.13;4.20;;;;;;;;;;4963466;28;20189;-73
2021/10/02 14:15:45;;;;;;;4.27;3.83;;;;;;;;;;4975495;28;20184;-73
2021/10/02 14:18:49;;;;;;;6.57;4.00;;;;;;;;;;4975172;28;20208;-73
2021/10/02 14:21:54;;;;;;;6.13;3.80;;;;;;;;;;4963281;28;20219;-73
2021/10/02 14:24:58;;;;;;;4.60;3.80;;;;;;;;;;4975235;28;20213;-73
2021/10/02 14:28:02;;;;;;;8.10;3.60;;;;;;;;;;4963107;28;20185;-73
2021/10/02 14:31:06;;;;;;;5.13;3.63;;;;;;;;;;4974943;28;20222;-73
2021/10/02 14:34:12;;;;;;;5.70;3.47;;;;;;;;;;4979469;28;20645;-74
2021/10/02 14:37:17;;;;;;;4.67;3.40;;;;;;;;;;4966094;28;20533;-73
2021/10/02 14:40:21;;;;;;;5.40;3.33;;;;;;;;;;4941064;28;20637;-73
2021/10/02 14:43:26;;;;;;;3.93;3.40;;;;;;;;;;4963321;28;20522;-73
2021/10/02 14:46:31;;;;;;;5.47;3.40;;;;;;;;;;4974853;28;20190;-74
2021/10/02 14:49:35;;;;;;;6.07;3.70;;;;;;;;;;4975363;28;20188;-73
2021/10/02 14:52:43;;;;;;;6.03;3.67;;;;;;;;;;4974113;28;20186;-73
2021/10/02 14:55:50;;;;;;;4.77;3.67;;;;;;;;;;4974779;28;20628;-74
2021/10/02 14:58:55;;;;;;;6.70;3.30;;;;;;;;;;4974485;28;20179;-74
2021/10/02 15:02:03;;;;;;;5.47;3.80;;;;;;;;;;4974403;28;20218;-73
2021/10/02 15:05:07;;;;;;;4.77;3.63;;;;;;;;;;4993718;23;20241;-74
2021/10/02 15:08:12;;;;;;;10.93;4.17;;;;;;;;;;4993861;28;20612;-74
2021/10/02 15:11:17;;;;;;;9.00;4.23;;;;;;;;;;4993696;28;20688;-74
2021/10/02 15:14:21;;;;;;;4.43;4.03;;;;;;;;;;4993200;28;20514;-74
2021/10/02 15:17:27;;;;;;;5.23;3.73;;;;;;;;;;4992554;28;20194;-74
2021/10/02 15:20:32;;;;;;;7.70;4.23;;;;;;;;;;4992237;28;20202;-74
2021/10/02 15:23:48;;;;;;;5.43;3.87;;;;;;;;;;4991288;28;20186;-74
2021/10/02 15:26:55;;;;;;;16.13;4.10;;;;;;;;;;4990835;28;20657;-74
2021/10/02 15:29:59;;;;;;;5.67;4.37;;;;;;;;;;4982990;28;20186;-74
2021/10/02 15:33:07;;;;;;;13.67;4.23;;;;;;;;;;4989539;28;20534;-75
2021/10/02 15:36:11;;;;;;;4.53;3.80;;;;;;;;;;4992340;28;20194;-74
2021/10/02 15:39:17;;;;;;;4.57;3.97;;;;;;;;;;4990545;28;20179;-74
2021/10/02 15:42:23;;;;;;;4.57;3.67;;;;;;;;;;4988992;28;20218;-73
2021/10/02 15:45:28;;;;;;;6.57;3.57;;;;;;;;;;4991964;28;20202;-74
2021/10/02 15:48:35;;;;;;;4.70;3.63;;;;;;;;;;4992329;28;20538;-73
2021/10/02 15:51:39;;;;;;;5.77;3.60;;;;;;;;;;4993791;28;20217;-74
2021/10/02 15:54:47;;;;;;;4.07;3.63;;;;;;;;;;4991556;28;20190;-74
2021/10/02 15:58:01;;;;;;;5.10;3.27;;;;;;;;;;4977913;28;20186;-73
2021/10/02 16:01:07;;;;;;;5.23;3.17;;;;;;;;;;4992211;28;20857;-74
2021/10/02 16:04:26;;;;;;;7.27;3.70;;;;;;;;;;4992550;28;20205;-74
2021/10/02 16:07:33;;;;;;;4.77;3.70;;;;;;;;;;4995875;28;20190;-74
2021/10/02 16:10:38;;;;;;;4.30;3.53;;;;;;;;;;4983258;28;20225;-74
2021/10/02 16:13:46;;;;;;;5.07;3.27;;;;;;;;;;4994353;28;20189;-74
2021/10/02 16:16:52;;;;;;;6.37;4.13;;;;;;;;;;4996732;28;20190;-73
2021/10/02 16:19:56;;;;;;;7.13;4.23;;;;;;;;;;4996413;28;20193;-73
2021/10/02 16:23:00;;;;;;;4.73;3.70;;;;;;;;;;4996635;28;20186;-73
2021/10/02 16:26:05;;;;;;;5.37;3.37;;;;;;;;;;4996466;28;20226;-73
2021/10/02 16:29:09;;;;;;;4.70;3.70;;;;;;;;;;4996054;28;20206;-73
2021/10/02 16:32:15;;;;;;;5.73;3.83;;;;;;;;;;4996487;28;20225;-73
2021/10/02 16:35:19;;;;;;;5.33;3.87;;;;;;;;;;4996459;28;20550;-73
2021/10/02 16:38:24;;;;;;;5.83;3.73;;;;;;;;;;4983305;28;20182;-71
2021/10/02 16:41:29;;;;;;;6.77;3.97;;;;;;;;;;4993135;28;20222;-71
2021/10/02 16:44:33;;;;;;;8.40;3.97;;;;;;;;;;4993059;28;20186;-71
2021/10/02 16:47:37;;;;;;;15.37;4.70;;;;;;;;;;4990379;28;20553;-71
2021/10/02 16:50:46;;;;;;;8.13;3.70;;;;;;;;;;4985956;28;20222;-71
2021/10/02 16:53:55;;;;;;;6.47;3.90;;;;;;;;;;4986522;28;20190;-71
2021/10/02 16:56:59;;;;;;;7.20;3.97;;;;;;;;;;4996078;28;20190;-71
2021/10/02 17:00:04;;;;;;;7.70;4.27;;;;;;;;;;4994745;28;20202;-71
2021/10/02 17:03:09;;;;;;;6.23;4.10;;;;;;;;;;4994718;28;20202;-71
2021/10/02 17:06:13;;;;;;;6.17;4.00;;;;;;;;;;4997023;28;20659;-71
2021/10/02 17:09:17;;;;;;;6.10;3.97;;;;;;;;;;4994008;28;20205;-71
2021/10/02 17:12:21;;;;;;;7.33;4.17;;;;;;;;;;4994134;28;20248;-71
2021/10/02 17:15:26;;;;;;;4.57;3.57;;;;;;;;;;4994012;28;20190;-71
2021/10/02 17:18:30;;;;;;;5.23;3.60;;;;;;;;;;4992378;28;20210;-71
2021/10/02 17:21:34;;;;;;;5.87;3.63;;;;;;;;;;4988566;28;20229;-71
2021/10/02 17:24:38;;;;;;;3.60;3.30;;;;;;;;;;4988763;28;20202;-71
2021/10/02 17:27:42;;;;;;;6.37;3.37;;;;;;;;;;4980875;28;20189;-71
2021/10/02 17:30:47;;;;;;;4.97;3.43;;;;;;;;;;4992519;28;20221;-71
2021/10/02 17:33:51;;;;;;;3.97;2.80;;;;;;;;;;4991781;28;20198;-71
2021/10/02 17:36:55;;;;;;;4.73;3.47;;;;;;;;;;4993587;28;20198;-72
2021/10/02 17:40:00;;;;;;;4.33;3.40;;;;;;;;;;4987575;28;20193;-71
2021/10/02 17:43:05;;;;;;;7.07;3.17;;;;;;;;;;4990696;28;20190;-71
2021/10/02 17:46:09;;;;;;;4.73;2.80;;;;;;;;;;4991448;28;20214;-71
2021/10/02 17:49:14;;;;;;;4.13;3.10;;;;;;;;;;4993134;28;20190;-71
2021/10/02 17:52:18;;;;;;;5.70;3.43;;;;;;;;;;4976092;28;20223;-72
2021/10/02 17:55:23;;;;;;;4.07;3.40;;;;;;;;;;4979346;28;20174;-71
2021/10/02 17:58:27;;;;;;;3.63;2.97;;;;;;;;;;4991978;28;20526;-71
2021/10/02 18:01:32;;;;;;;4.93;3.50;;;;;;;;;;4992216;28;20233;-71
2021/10/02 18:04:36;;;;;;;3.83;3.10;;;;;;;;;;4974956;28;20554;-71
2021/10/02 18:07:41;;;;;;;5.00;3.07;;;;;;;;;;4985304;28;20185;-71
2021/10/02 18:10:47;;;;;;;5.03;2.90;;;;;;;;;;4990710;28;20225;-71
2021/10/02 18:13:51;;;;;;;5.07;3.53;;;;;;;;;;4990136;28;20186;-72
2021/10/02 18:16:56;;;;;;;4.47;3.30;;;;;;;;;;4993888;28;20190;-71
2021/10/02 18:20:00;;;;;;;7.70;3.60;;;;;;;;;;4992093;28;20209;-72
2021/10/02 18:23:05;;;;;;;3.87;3.30;;;;;;;;;;4994010;28;20205;-72
2021/10/02 18:26:13;;;;;;;5.40;3.30;;;;;;;;;;4992325;28;20206;-72
2021/10/02 18:29:17;;;;;;;5.07;3.30;;;;;;;;;;4991740;28;20534;-72
2021/10/02 18:32:23;;;;;;;3.53;3.13;;;;;;;;;;4992963;28;20229;-72
2021/10/02 18:35:27;;;;;;;5.23;3.47;;;;;;;;;;4993810;28;20534;-72
2021/10/02 18:38:31;;;;;;;4.03;3.37;;;;;;;;;;4992511;28;20206;-72
2021/10/02 18:41:35;;;;;;;5.03;3.63;;;;;;;;;;4992955;28;20225;-72
2021/10/02 18:44:39;;;;;;;4.03;3.20;;;;;;;;;;4993861;28;20186;-72
2021/10/02 18:47:44;;;;;;;4.50;3.10;;;;;;;;;;4994569;28;20174;-73
2021/10/02 18:50:49;;;;;;;5.77;3.77;;;;;;;;;;4975947;28;20218;-72
2021/10/02 18:53:53;;;;;;;5.57;3.50;;;;;;;;;;4973681;28;20202;-72
2021/10/02 18:56:57;;;;;;;11.77;7.47;;;;;;;;;;4984811;28;20201;-73
2021/10/02 19:00:06;;;;;;;9.53;6.40;;;;;;;;;;4993681;28;20202;-72
2021/10/02 19:03:12;;;;;;;6.90;4.23;;;;;;;;;;4975670;28;20183;-73
2021/10/02 19:06:18;;;;;;;6.87;4.43;;;;;;;;;;4993743;28;20217;-72
2021/10/02 19:09:22;;;;;;;5.83;3.60;;;;;;;;;;4993686;28;20214;-72
2021/10/02 19:12:27;;;;;;;5.17;3.40;;;;;;;;;;4993885;28;20222;-72
2021/10/02 19:15:31;;;;;;;4.07;3.60;;;;;;;;;;4992765;28;20194;-72
2021/10/02 19:18:36;;;;;;;4.10;3.70;;;;;;;;;;4990841;28;20186;-72
2021/10/02 19:21:40;;;;;;;3.83;3.27;;;;;;;;;;4993055;28;20222;-72
2021/10/02 19:24:46;;;;;;;4.27;3.87;;;;;;;;;;4992550;28;20202;-72
2021/10/02 19:27:50;;;;;;;4.13;3.63;;;;;;;;;;4991186;28;20194;-72
2021/10/02 19:30:55;;;;;;;4.73;3.40;;;;;;;;;;4992269;28;20226;-72
2021/10/02 19:33:59;;;;;;;5.60;3.57;;;;;;;;;;4990354;28;20186;-72